sensor_id;sensor_type;location;lat;lon;timestamp;pressure;altitude;pressure_sealevel;temperature;humidity
7058;BME280;3570;43.080;25.628;2023-02-03T00:01:49;-19526.47;;;2.51;100.00
7058;BME280;3570;43.080;25.628;2023-02-03T00:04:33;-19523.53;;;2.41;100.00
7058;BME280;3570;43.080;25.628;2023-02-03T00:07:18;-19520.88;;;2.32;100.00
7058;BME280;3570;43.080;25.628;2023-02-03T00:10:03;-19524.84;;;2.45;100.00
7058;BME280;3570;43.080;25.628;2023-02-03T00:12:50;-19521.91;;;2.35;100.00
7058;BME280;3570;43.080;25.628;2023-02-03T00:15:35;-19524.25;;;2.43;100.00
7058;BME280;3570;43.080;25.628;2023-02-03T00:18:19;-19524.13;;;2.43;100.00
7058;BME280;3570;43.080;25.628;2023-02-03T00:21:04;-19522.22;;;2.36;100.00
7058;BME280;3570;43.080;25.628;2023-02-03T00:23:48;-19524.72;;;2.45;100.00
7058;BME280;3570;43.080;25.628;2023-02-03T00:26:32;-19525.44;;;2.47;100.00
7058;BME280;3570;43.080;25.628;2023-02-03T00:29:16;-19523.69;;;2.41;100.00
7058;BME280;3570;43.080;25.628;2023-02-03T00:32:01;-19528.81;;;2.59;100.00
7058;BME280;3570;43.080;25.628;2023-02-03T00:34:45;-19522.06;;;2.36;100.00
7058;BME280;3570;43.080;25.628;2023-02-03T00:37:29;-19530.72;;;2.65;100.00
7058;BME280;3570;43.080;25.628;2023-02-03T00:40:13;-19531.47;;;2.68;100.00
7058;BME280;3570;43.080;25.628;2023-02-03T00:42:57;-19535.28;;;2.81;100.00
7058;BME280;3570;43.080;25.628;2023-02-03T00:45:41;-19521.63;;;2.34;100.00
7058;BME280;3570;43.080;25.628;2023-02-03T00:48:25;-19540.28;;;2.98;100.00
7058;BME280;3570;43.080;25.628;2023-02-03T00:51:09;-19534.25;;;2.77;100.00
7058;BME280;3570;43.080;25.628;2023-02-03T00:53:53;-19543.50;;;3.09;100.00
7058;BME280;3570;43.080;25.628;2023-02-03T00:56:37;-19537.78;;;2.90;100.00
7058;BME280;3570;43.080;25.628;2023-02-03T00:59:21;-19538.06;;;2.91;100.00
7058;BME280;3570;43.080;25.628;2023-02-03T01:02:05;-19546.00;;;3.18;100.00
7058;BME280;3570;43.080;25.628;2023-02-03T01:04:49;-19546.28;;;3.19;100.00
7058;BME280;3570;43.080;25.628;2023-02-03T01:07:33;-19546.28;;;3.19;100.00
7058;BME280;3570;43.080;25.628;2023-02-03T01:10:17;-19545.41;;;3.16;100.00
7058;BME280;3570;43.080;25.628;2023-02-03T01:13:01;-19548.34;;;3.26;100.00
7058;BME280;3570;43.080;25.628;2023-02-03T01:15:46;-19546.44;;;3.19;100.00
7058;BME280;3570;43.080;25.628;2023-02-03T01:18:33;-19544.97;;;3.14;100.00
7058;BME280;3570;43.080;25.628;2023-02-03T01:21:20;-19540.72;;;3.00;100.00
7058;BME280;3570;43.080;25.628;2023-02-03T01:24:04;-19542.31;;;3.05;100.00
7058;BME280;3570;43.080;25.628;2023-02-03T01:26:48;-19540.13;;;2.98;100.00
7058;BME280;3570;43.080;25.628;2023-02-03T01:29:33;-19538.94;;;2.94;100.00
7058;BME280;3570;43.080;25.628;2023-02-03T01:32:17;-19540.41;;;2.99;100.00
7058;BME280;3570;43.080;25.628;2023-02-03T01:35:01;-19542.19;;;3.05;100.00
7058;BME280;3570;43.080;25.628;2023-02-03T01:37:45;-19542.31;;;3.05;100.00
7058;BME280;3570;43.080;25.628;2023-02-03T01:40:29;-19541.00;;;3.01;100.00
7058;BME280;3570;43.080;25.628;2023-02-03T01:43:31;-19539.81;;;2.97;100.00
7058;BME280;3570;43.080;25.628;2023-02-03T01:49:23;-19543.06;;;3.08;100.00
7058;BME280;3570;43.080;25.628;2023-02-03T01:52:10;-19544.53;;;3.13;100.00
7058;BME280;3570;43.080;25.628;2023-02-03T01:54:56;-19546.88;;;3.21;100.00
7058;BME280;3570;43.080;25.628;2023-02-03T01:58:04;-19546.44;;;3.19;100.00
7058;BME280;3570;43.080;25.628;2023-02-03T02:00:49;-19546.13;;;3.18;100.00
7058;BME280;3570;43.080;25.628;2023-02-03T02:03:40;-19541.59;;;3.03;100.00
7058;BME280;3570;43.080;25.628;2023-02-03T02:06:25;-19545.56;;;3.16;100.00
7058;BME280;3570;43.080;25.628;2023-02-03T02:09:10;-19544.53;;;3.13;100.00
7058;BME280;3570;43.080;25.628;2023-02-03T02:11:54;-19536.59;;;2.85;100.00
7058;BME280;3570;43.080;25.628;2023-02-03T02:14:38;-19539.25;;;2.95;100.00
7058;BME280;3570;43.080;25.628;2023-02-03T02:20:44;-19531.59;;;2.68;100.00
7058;BME280;3570;43.080;25.628;2023-02-03T02:27:02;-19531.91;;;2.69;100.00
7058;BME280;3570;43.080;25.628;2023-02-03T02:33:10;-19539.69;;;2.96;100.00
7058;BME280;3570;43.080;25.628;2023-02-03T02:36:17;-19538.22;;;2.91;100.00
7058;BME280;3570;43.080;25.628;2023-02-03T02:39:12;-19538.50;;;2.92;100.00
7058;BME280;3570;43.080;25.628;2023-02-03T02:42:03;-19540.28;;;2.98;100.00
7058;BME280;3570;43.080;25.628;2023-02-03T02:45:05;-19535.88;;;2.83;100.00
7058;BME280;3570;43.080;25.628;2023-02-03T02:47:56;-19536.88;;;2.86;100.00
7058;BME280;3570;43.080;25.628;2023-02-03T02:50:45;-19528.81;;;2.59;100.00
7058;BME280;3570;43.080;25.628;2023-02-03T02:53:38;-19533.06;;;2.73;100.00
7058;BME280;3570;43.080;25.628;2023-02-03T02:56:24;-19534.97;;;2.80;100.00
7058;BME280;3570;43.080;25.628;2023-02-03T02:59:09;-19527.06;;;2.53;100.00
7058;BME280;3570;43.080;25.628;2023-02-03T03:01:54;-19524.41;;;2.44;100.00
7058;BME280;3570;43.080;25.628;2023-02-03T03:04:39;-19530.00;;;2.63;100.00
7058;BME280;3570;43.080;25.628;2023-02-03T03:07:25;-19526.16;;;2.50;100.00
7058;BME280;3570;43.080;25.628;2023-02-03T03:10:12;-19529.69;;;2.62;100.00
7058;BME280;3570;43.080;25.628;2023-02-03T03:13:03;-19528.38;;;2.57;100.00
7058;BME280;3570;43.080;25.628;2023-02-03T03:15:50;-19529.84;;;2.62;100.00
7058;BME280;3570;43.080;25.628;2023-02-03T03:18:41;-19523.81;;;2.42;100.00
7058;BME280;3570;43.080;25.628;2023-02-03T03:21:30;-19523.81;;;2.42;100.00
7058;BME280;3570;43.080;25.628;2023-02-03T03:24:32;-19527.66;;;2.55;100.00
7058;BME280;3570;43.080;25.628;2023-02-03T03:27:23;-19527.19;;;2.53;100.00
7058;BME280;3570;43.080;25.628;2023-02-03T03:30:19;-19521.03;;;2.32;100.00
7058;BME280;3570;43.080;25.628;2023-02-03T03:33:06;-19528.66;;;2.58;100.00
7058;BME280;3570;43.080;25.628;2023-02-03T03:36:18;-19528.38;;;2.57;100.00
7058;BME280;3570;43.080;25.628;2023-02-03T03:39:22;-19534.84;;;2.79;100.00
7058;BME280;3570;43.080;25.628;2023-02-03T03:42:28;-19534.84;;;2.79;100.00
7058;BME280;3570;43.080;25.628;2023-02-03T03:48:24;-19529.69;;;2.62;100.00
7058;BME280;3570;43.080;25.628;2023-02-03T03:51:18;-19535.28;;;2.81;100.00
7058;BME280;3570;43.080;25.628;2023-02-03T03:54:07;-19535.72;;;2.82;100.00
7058;BME280;3570;43.080;25.628;2023-02-03T03:57:04;-19538.66;;;2.93;100.00
7058;BME280;3570;43.080;25.628;2023-02-03T03:59:50;-19530.72;;;2.65;100.00
7058;BME280;3570;43.080;25.628;2023-02-03T04:02:38;-19540.72;;;3.00;100.00
7058;BME280;3570;43.080;25.628;2023-02-03T04:05:23;-19538.50;;;2.92;100.00
7058;BME280;3570;43.080;25.628;2023-02-03T04:08:08;-19541.59;;;3.03;100.00
7058;BME280;3570;43.080;25.628;2023-02-03T04:10:52;-19542.19;;;3.05;100.00
7058;BME280;3570;43.080;25.628;2023-02-03T04:13:36;-19541.00;;;3.01;100.00
7058;BME280;3570;43.080;25.628;2023-02-03T04:16:20;-19540.72;;;3.00;100.00
7058;BME280;3570;43.080;25.628;2023-02-03T04:19:04;-19539.97;;;2.97;100.00
7058;BME280;3570;43.080;25.628;2023-02-03T04:21:47;-19543.06;;;3.08;100.00
7058;BME280;3570;43.080;25.628;2023-02-03T04:24:31;-19538.06;;;2.91;100.00
7058;BME280;3570;43.080;25.628;2023-02-03T04:27:15;-19537.19;;;2.88;100.00
7058;BME280;3570;43.080;25.628;2023-02-03T04:29:59;-19541.59;;;3.03;100.00
7058;BME280;3570;43.080;25.628;2023-02-03T04:32:44;-19542.75;;;3.07;100.00
7058;BME280;3570;43.080;25.628;2023-02-03T04:35:28;-19540.84;;;3.00;100.00
7058;BME280;3570;43.080;25.628;2023-02-03T04:38:12;-19543.06;;;3.08;100.00
7058;BME280;3570;43.080;25.628;2023-02-03T04:40:56;-19544.53;;;3.13;100.00
7058;BME280;3570;43.080;25.628;2023-02-03T04:43:40;-19548.03;;;3.25;100.00
7058;BME280;3570;43.080;25.628;2023-02-03T04:46:24;-19548.03;;;3.25;100.00
7058;BME280;3570;43.080;25.628;2023-02-03T04:49:08;-19549.50;;;3.30;100.00
7058;BME280;3570;43.080;25.628;2023-02-03T04:51:54;-19548.78;;;3.27;100.00
7058;BME280;3570;43.080;25.628;2023-02-03T04:54:38;-19547.91;;;3.24;100.00
7058;BME280;3570;43.080;25.628;2023-02-03T04:57:21;-19546.88;;;3.21;100.00
7058;BME280;3570;43.080;25.628;2023-02-03T05:00:06;-19548.94;;;3.28;100.00
7058;BME280;3570;43.080;25.628;2023-02-03T05:02:50;-19544.38;;;3.12;100.00
7058;BME280;3570;43.080;25.628;2023-02-03T05:05:34;-19548.63;;;3.27;100.00
7058;BME280;3570;43.080;25.628;2023-02-03T05:08:18;-19548.03;;;3.25;100.00
7058;BME280;3570;43.080;25.628;2023-02-03T05:11:02;-19545.84;;;3.17;100.00
7058;BME280;3570;43.080;25.628;2023-02-03T05:13:46;-19546.13;;;3.18;100.00
7058;BME280;3570;43.080;25.628;2023-02-03T05:16:30;-19547.03;;;3.21;100.00
7058;BME280;3570;43.080;25.628;2023-02-03T05:19:14;-19545.69;;;3.17;100.00
7058;BME280;3570;43.080;25.628;2023-02-03T05:21:58;-19542.75;;;3.07;100.00
7058;BME280;3570;43.080;25.628;2023-02-03T05:24:42;-19544.81;;;3.14;100.00
7058;BME280;3570;43.080;25.628;2023-02-03T05:27:26;-19544.22;;;3.12;100.00
7058;BME280;3570;43.080;25.628;2023-02-03T05:30:10;-19545.69;;;3.17;100.00
7058;BME280;3570;43.080;25.628;2023-02-03T05:32:55;-19545.09;;;3.15;100.00
7058;BME280;3570;43.080;25.628;2023-02-03T05:35:39;-19547.47;;;3.23;100.00
7058;BME280;3570;43.080;25.628;2023-02-03T05:38:23;-19546.59;;;3.20;100.00
7058;BME280;3570;43.080;25.628;2023-02-03T05:41:11;-19547.31;;;3.22;100.00
7058;BME280;3570;43.080;25.628;2023-02-03T05:44:14;-19547.16;;;3.22;100.00
7058;BME280;3570;43.080;25.628;2023-02-03T05:46:58;-19548.50;;;3.26;100.00
7058;BME280;3570;43.080;25.628;2023-02-03T05:49:42;-19539.09;;;2.94;100.00
7058;BME280;3570;43.080;25.628;2023-02-03T05:52:26;-19538.94;;;2.94;100.00
7058;BME280;3570;43.080;25.628;2023-02-03T05:55:10;-19547.31;;;3.22;100.00
7058;BME280;3570;43.080;25.628;2023-02-03T05:57:54;-19548.03;;;3.25;100.00
7058;BME280;3570;43.080;25.628;2023-02-03T06:00:38;-19543.66;;;3.10;100.00
7058;BME280;3570;43.080;25.628;2023-02-03T06:03:22;-19546.44;;;3.19;100.00
7058;BME280;3570;43.080;25.628;2023-02-03T06:06:06;-19548.50;;;3.26;100.00
7058;BME280;3570;43.080;25.628;2023-02-03T06:08:50;-19545.41;;;3.16;100.00
7058;BME280;3570;43.080;25.628;2023-02-03T06:11:39;-19541.59;;;3.03;100.00
7058;BME280;3570;43.080;25.628;2023-02-03T06:14:25;-19541.72;;;3.03;100.00
7058;BME280;3570;43.080;25.628;2023-02-03T06:17:10;-19547.59;;;3.23;100.00
7058;BME280;3570;43.080;25.628;2023-02-03T06:19:54;-19546.13;;;3.18;100.00
7058;BME280;3570;43.080;25.628;2023-02-03T06:22:38;-19546.13;;;3.18;100.00
7058;BME280;3570;43.080;25.628;2023-02-03T06:25:23;-19548.63;;;3.27;100.00
7058;BME280;3570;43.080;25.628;2023-02-03T06:28:07;-19549.81;;;3.31;100.00
7058;BME280;3570;43.080;25.628;2023-02-03T06:30:52;-19550.25;;;3.32;100.00
7058;BME280;3570;43.080;25.628;2023-02-03T06:33:36;-19543.94;;;3.11;100.00
7058;BME280;3570;43.080;25.628;2023-02-03T06:36:19;-19550.97;;;3.35;100.00
7058;BME280;3570;43.080;25.628;2023-02-03T06:39:03;-19553.47;;;3.43;100.00
7058;BME280;3570;43.080;25.628;2023-02-03T06:41:47;-19552.44;;;3.40;100.00
7058;BME280;3570;43.080;25.628;2023-02-03T06:44:31;-19553.47;;;3.43;100.00
7058;BME280;3570;43.080;25.628;2023-02-03T06:47:15;-19555.09;;;3.49;100.00
7058;BME280;3570;43.080;25.628;2023-02-03T06:49:59;-19551.41;;;3.36;100.00
7058;BME280;3570;43.080;25.628;2023-02-03T06:52:43;-19559.34;;;3.63;100.00
7058;BME280;3570;43.080;25.628;2023-02-03T06:55:28;-19539.25;;;2.95;100.00
7058;BME280;3570;43.080;25.628;2023-02-03T06:58:12;-19560.06;;;3.66;100.00
7058;BME280;3570;43.080;25.628;2023-02-03T07:00:55;-19543.94;;;3.11;100.00
7058;BME280;3570;43.080;25.628;2023-02-03T07:03:39;-19560.97;;;3.69;100.00
7058;BME280;3570;43.080;25.628;2023-02-03T07:06:24;-19555.53;;;3.50;100.00
7058;BME280;3570;43.080;25.628;2023-02-03T07:09:13;-19559.19;;;3.63;100.00
7058;BME280;3570;43.080;25.628;2023-02-03T07:11:58;-19555.69;;;3.51;100.00
7058;BME280;3570;43.080;25.628;2023-02-03T07:14:41;-19555.97;;;3.52;100.00
7058;BME280;3570;43.080;25.628;2023-02-03T07:17:25;-19552.75;;;3.41;100.00
7058;BME280;3570;43.080;25.628;2023-02-03T07:20:10;-19552.75;;;3.41;100.00
7058;BME280;3570;43.080;25.628;2023-02-03T07:22:55;-19556.56;;;3.54;100.00
7058;BME280;3570;43.080;25.628;2023-02-03T07:25:40;-19555.38;;;3.50;100.00
7058;BME280;3570;43.080;25.628;2023-02-03T07:28:24;-19565.66;;;3.85;100.00
7058;BME280;3570;43.080;25.628;2023-02-03T07:31:08;-19568.59;;;3.95;100.00
7058;BME280;3570;43.080;25.628;2023-02-03T07:33:53;-19573.72;;;4.13;100.00
7058;BME280;3570;43.080;25.628;2023-02-03T07:36:36;-19581.78;;;4.40;100.00
7058;BME280;3570;43.080;25.628;2023-02-03T07:39:20;-19582.38;;;4.42;100.00
7058;BME280;3570;43.080;25.628;2023-02-03T07:42:04;-19578.28;;;4.28;100.00
7058;BME280;3570;43.080;25.628;2023-02-03T07:44:48;-19577.09;;;4.24;100.00
7058;BME280;3570;43.080;25.628;2023-02-03T07:47:32;-19569.91;;;4.00;100.00
7058;BME280;3570;43.080;25.628;2023-02-03T07:50:17;-19570.06;;;4.00;100.00
7058;BME280;3570;43.080;25.628;2023-02-03T07:53:01;-19587.22;;;4.59;100.00
7058;BME280;3570;43.080;25.628;2023-02-03T07:55:45;-19587.38;;;4.59;100.00
7058;BME280;3570;43.080;25.628;2023-02-03T07:58:30;-19562.13;;;3.73;100.00
7058;BME280;3570;43.080;25.628;2023-02-03T08:01:15;-19579.44;;;4.32;100.00
7058;BME280;3570;43.080;25.628;2023-02-03T08:03:59;-19580.63;;;4.36;100.00
7058;BME280;3570;43.080;25.628;2023-02-03T08:06:45;-19581.50;;;4.39;100.00
7058;BME280;3570;43.080;25.628;2023-02-03T08:09:29;-19575.63;;;4.19;100.00
7058;BME280;3570;43.080;25.628;2023-02-03T08:12:13;-19577.09;;;4.24;100.00
7058;BME280;3570;43.080;25.628;2023-02-03T08:14:57;-19579.75;;;4.33;100.00
7058;BME280;3570;43.080;25.628;2023-02-03T08:17:41;-19581.78;;;4.40;100.00
7058;BME280;3570;43.080;25.628;2023-02-03T08:20:27;-19577.09;;;4.24;100.00
7058;BME280;3570;43.080;25.628;2023-02-03T08:23:11;-19576.22;;;4.21;100.00
7058;BME280;3570;43.080;25.628;2023-02-03T08:25:55;-19581.34;;;4.39;100.00
7058;BME280;3570;43.080;25.628;2023-02-03T08:28:39;-19583.69;;;4.47;100.00
7058;BME280;3570;43.080;25.628;2023-02-03T08:31:23;-19587.81;;;4.61;100.00
7058;BME280;3570;43.080;25.628;2023-02-03T08:34:07;-19587.50;;;4.60;100.00
7058;BME280;3570;43.080;25.628;2023-02-03T08:36:51;-19592.63;;;4.77;100.00
7058;BME280;3570;43.080;25.628;2023-02-03T08:39:36;-19602.59;;;5.12;100.00
7058;BME280;3570;43.080;25.628;2023-02-03T08:42:20;-19600.13;;;5.03;100.00
7058;BME280;3570;43.080;25.628;2023-02-03T08:45:04;-19601.44;;;5.08;100.00
7058;BME280;3570;43.080;25.628;2023-02-03T08:47:48;-19597.47;;;4.94;100.00
7058;BME280;3570;43.080;25.628;2023-02-03T08:50:32;-19604.06;;;5.17;100.00
7058;BME280;3570;43.080;25.628;2023-02-03T08:53:16;-19606.41;;;5.25;100.00
7058;BME280;3570;43.080;25.628;2023-02-03T08:56:04;-19611.41;;;5.42;100.00
7058;BME280;3570;43.080;25.628;2023-02-03T08:58:48;-19607.75;;;5.29;100.00
7058;BME280;3570;43.080;25.628;2023-02-03T09:01:32;-19614.94;;;5.54;100.00
7058;BME280;3570;43.080;25.628;2023-02-03T09:04:17;-19615.94;;;5.57;100.00
7058;BME280;3570;43.080;25.628;2023-02-03T09:07:07;-19622.84;;;5.81;100.00
7058;BME280;3570;43.080;25.628;2023-02-03T09:09:51;-19627.81;;;5.98;100.00
7058;BME280;3570;43.080;25.628;2023-02-03T09:12:34;-19632.50;;;6.14;99.99
7058;BME280;3570;43.080;25.628;2023-02-03T09:15:18;-19638.38;;;6.34;97.51
7058;BME280;3570;43.080;25.628;2023-02-03T09:18:02;-19656.25;;;6.96;95.14
7058;BME280;3570;43.080;25.628;2023-02-03T09:20:47;-19657.13;;;6.99;95.70
7058;BME280;3570;43.080;25.628;2023-02-03T09:23:31;-19661.50;;;7.14;94.54
7058;BME280;3570;43.080;25.628;2023-02-03T09:26:15;-19666.47;;;7.31;94.72
7058;BME280;3570;43.080;25.628;2023-02-03T09:28:59;-19684.03;;;7.91;92.34
7058;BME280;3570;43.080;25.628;2023-02-03T09:31:42;-19686.09;;;7.98;90.20
7058;BME280;3570;43.080;25.628;2023-02-03T09:34:26;-19697.66;;;8.38;90.12
7058;BME280;3570;43.080;25.628;2023-02-03T09:37:10;-19688.88;;;8.08;87.61
7058;BME280;3570;43.080;25.628;2023-02-03T09:39:54;-19677.16;;;7.68;89.78
7058;BME280;3570;43.080;25.628;2023-02-03T09:43:14;-19671.59;;;7.48;89.95
7058;BME280;3570;43.080;25.628;2023-02-03T09:46:23;-19677.31;;;7.68;88.01
7058;BME280;3570;43.080;25.628;2023-02-03T09:49:16;-19652.13;;;6.82;93.24
7058;BME280;3570;43.080;25.628;2023-02-03T09:52:22;-19637.78;;;6.32;95.55
7058;BME280;3570;43.080;25.628;2023-02-03T09:58:19;-19667.22;;;7.33;93.08
7058;BME280;3570;43.080;25.628;2023-02-03T10:01:08;-19692.53;;;8.20;88.00
7058;BME280;3570;43.080;25.628;2023-02-03T10:13:26;-19697.22;;;8.36;86.94
7058;BME280;3570;43.080;25.628;2023-02-03T10:19:26;-19675.25;;;7.61;88.52
7058;BME280;3570;43.080;25.628;2023-02-03T10:22:20;-19661.50;;;7.14;92.08
7058;BME280;3570;43.080;25.628;2023-02-03T10:28:01;-19646.13;;;6.61;93.94
7058;BME280;3570;43.080;25.628;2023-02-03T10:31:13;-19638.97;;;6.36;94.58
7058;BME280;3570;43.080;25.628;2023-02-03T10:34:16;-19640.44;;;6.41;96.15
7058;BME280;3570;43.080;25.628;2023-02-03T10:39:58;-19643.66;;;6.52;95.22
7058;BME280;3570;43.080;25.628;2023-02-03T10:42:46;-19643.06;;;6.50;96.13
7058;BME280;3570;43.080;25.628;2023-02-03T10:45:49;-19632.38;;;6.14;97.79
7058;BME280;3570;43.080;25.628;2023-02-03T10:48:33;-19627.38;;;5.97;98.86
7058;BME280;3570;43.080;25.628;2023-02-03T10:51:21;-19635.44;;;6.24;99.83
7058;BME280;3570;43.080;25.628;2023-02-03T10:54:26;-19645.69;;;6.59;97.29
7058;BME280;3570;43.080;25.628;2023-02-03T10:57:13;-19648.63;;;6.70;96.34
7058;BME280;3570;43.080;25.628;2023-02-03T11:00:28;-19651.25;;;6.79;95.10
7058;BME280;3570;43.080;25.628;2023-02-03T11:03:30;-19668.53;;;7.38;90.78
7058;BME280;3570;43.080;25.628;2023-02-03T11:06:16;-19680.09;;;7.78;89.63
7058;BME280;3570;43.080;25.628;2023-02-03T11:09:00;-19667.81;;;7.35;90.99
7058;BME280;3570;43.080;25.628;2023-02-03T11:11:43;-19683.16;;;7.88;88.05
7058;BME280;3570;43.080;25.628;2023-02-03T11:14:35;-19648.03;;;6.68;90.85
7058;BME280;3570;43.080;25.628;2023-02-03T11:17:21;-19645.69;;;6.59;92.22
7058;BME280;3570;43.080;25.628;2023-02-03T11:20:15;-19656.53;;;6.97;92.30
7058;BME280;3570;43.080;25.628;2023-02-03T11:23:00;-19712.44;;;8.89;84.95
7058;BME280;3570;43.080;25.628;2023-02-03T11:25:46;-19711.25;;;8.85;81.87
7058;BME280;3570;43.080;25.628;2023-02-03T11:28:29;-19747.94;;;10.11;79.20
7058;BME280;3570;43.080;25.628;2023-02-03T11:31:20;-19766.22;;;10.74;73.29
7058;BME280;3570;43.080;25.628;2023-02-03T11:34:15;-19784.59;;;11.37;68.29
7058;BME280;3570;43.080;25.628;2023-02-03T11:37:23;-19732.59;;;9.58;71.35
7058;BME280;3570;43.080;25.628;2023-02-03T11:45:43;-19764.91;;;10.69;68.66
7058;BME280;3570;43.080;25.628;2023-02-03T11:48:36;-19770.00;;;10.87;66.21
7058;BME280;3570;43.080;25.628;2023-02-03T11:51:46;-19770.59;;;10.89;64.68
7058;BME280;3570;43.080;25.628;2023-02-03T11:54:50;-19708.78;;;8.76;72.45
7058;BME280;3570;43.080;25.628;2023-02-03T12:15:42;-19753.38;;;10.29;68.06
7058;BME280;3570;43.080;25.628;2023-02-03T12:18:55;-19759.94;;;10.52;67.06
7058;BME280;3570;43.080;25.628;2023-02-03T12:22:11;-19703.22;;;8.57;74.20
7058;BME280;3570;43.080;25.628;2023-02-03T12:25:00;-19658.59;;;7.04;82.33
7058;BME280;3570;43.080;25.628;2023-02-03T12:27:59;-19647.31;;;6.65;86.62
7058;BME280;3570;43.080;25.628;2023-02-03T12:30:53;-19638.66;;;6.35;88.87
7058;BME280;3570;43.080;25.628;2023-02-03T12:33:45;-19643.06;;;6.50;90.06
7058;BME280;3570;43.080;25.628;2023-02-03T12:43:12;-19619.31;;;5.69;100.00
7058;BME280;3570;43.080;25.628;2023-02-03T12:50:04;-19629.56;;;6.04;100.00
7058;BME280;3570;43.080;25.628;2023-02-03T12:52:35;-19634.84;;;6.22;100.00
7058;BME280;3570;43.080;25.628;2023-02-03T12:55:36;-19648.31;;;6.68;96.30
7058;BME280;3570;43.080;25.628;2023-02-03T13:01:44;-19646.72;;;6.63;93.37
7058;BME280;3570;43.080;25.628;2023-02-03T13:04:46;-19632.06;;;6.13;96.15
7058;BME280;3570;43.080;25.628;2023-02-03T13:07:45;-19631.63;;;6.11;95.28
7058;BME280;3570;43.080;25.628;2023-02-03T13:10:36;-19637.78;;;6.32;93.82
7058;BME280;3570;43.080;25.628;2023-02-03T13:13:30;-19629.88;;;6.05;92.61
7058;BME280;3570;43.080;25.628;2023-02-03T13:16:21;-19627.53;;;5.97;94.19
7058;BME280;3570;43.080;25.628;2023-02-03T13:19:16;-19627.81;;;5.98;95.13
7058;BME280;3570;43.080;25.628;2023-02-03T13:22:01;-19627.09;;;5.96;93.14
7058;BME280;3570;43.080;25.628;2023-02-03T13:24:51;-19627.22;;;5.96;94.39
7058;BME280;3570;43.080;25.628;2023-02-03T13:27:48;-19620.50;;;5.73;94.81
7058;BME280;3570;43.080;25.628;2023-02-03T13:42:36;-19625.34;;;5.90;90.18
7058;BME280;3570;43.080;25.628;2023-02-03T13:45:35;-19623.56;;;5.84;89.34
7058;BME280;3570;43.080;25.628;2023-02-03T13:48:24;-19623.88;;;5.85;88.50
7058;BME280;3570;43.080;25.628;2023-02-03T13:51:16;-19618.44;;;5.66;88.32
7058;BME280;3570;43.080;25.628;2023-02-03T13:54:16;-19616.25;;;5.58;87.11
7058;BME280;3570;43.080;25.628;2023-02-03T13:57:17;-19624.16;;;5.86;86.51
7058;BME280;3570;43.080;25.628;2023-02-03T14:00:06;-19617.13;;;5.61;86.61
7058;BME280;3570;43.080;25.628;2023-02-03T14:03:03;-19611.25;;;5.41;87.20
7058;BME280;3570;43.080;25.628;2023-02-03T14:05:47;-19617.56;;;5.63;87.21
7058;BME280;3570;43.080;25.628;2023-02-03T14:17:03;-19614.63;;;5.53;90.30
7058;BME280;3570;43.080;25.628;2023-02-03T14:22:38;-19613.59;;;5.49;91.31
7058;BME280;3570;43.080;25.628;2023-02-03T14:25:23;-19614.34;;;5.52;91.31
7058;BME280;3570;43.080;25.628;2023-02-03T14:28:11;-19620.34;;;5.72;91.27
7058;BME280;3570;43.080;25.628;2023-02-03T14:31:04;-19660.34;;;7.10;84.58
7058;BME280;3570;43.080;25.628;2023-02-03T14:55:20;-19608.19;;;5.31;89.94
7058;BME280;3570;43.080;25.628;2023-02-03T14:58:29;-19610.53;;;5.39;90.72
7058;BME280;3570;43.080;25.628;2023-02-03T15:04:21;-19601.28;;;5.07;89.64
7058;BME280;3570;43.080;25.628;2023-02-03T15:07:06;-19605.84;;;5.23;90.59
7058;BME280;3570;43.080;25.628;2023-02-03T15:09:51;-19607.16;;;5.27;89.48
7058;BME280;3570;43.080;25.628;2023-02-03T15:12:36;-19604.53;;;5.18;89.93
7058;BME280;3570;43.080;25.628;2023-02-03T15:18:30;-19584.88;;;4.51;90.62
7058;BME280;3570;43.080;25.628;2023-02-03T15:21:19;-19582.97;;;4.44;90.37
7058;BME280;3570;43.080;25.628;2023-02-03T15:24:13;-19586.47;;;4.56;89.55
7058;BME280;3570;43.080;25.628;2023-02-03T15:26:58;-19579.44;;;4.32;89.50
7058;BME280;3570;43.080;25.628;2023-02-03T15:29:43;-19580.03;;;4.34;89.62
7058;BME280;3570;43.080;25.628;2023-02-03T15:32:33;-19576.66;;;4.23;89.64
7058;BME280;3570;43.080;25.628;2023-02-03T15:35:21;-19571.22;;;4.04;90.41
7058;BME280;3570;43.080;25.628;2023-02-03T15:38:18;-19562.88;;;3.75;91.14
7058;BME280;3570;43.080;25.628;2023-02-03T15:41:06;-19564.63;;;3.81;90.77
7058;BME280;3570;43.080;25.628;2023-02-03T15:43:58;-19562.13;;;3.73;90.14
7058;BME280;3570;43.080;25.628;2023-02-03T15:46:48;-19556.56;;;3.54;89.55
7058;BME280;3570;43.080;25.628;2023-02-03T15:49:37;-19552.00;;;3.38;90.08
7058;BME280;3570;43.080;25.628;2023-02-03T15:52:25;-19554.06;;;3.45;90.83
7058;BME280;3570;43.080;25.628;2023-02-03T15:55:43;-19552.31;;;3.39;91.51
7058;BME280;3570;43.080;25.628;2023-02-03T15:58:32;-19543.34;;;3.09;92.46
7058;BME280;3570;43.080;25.628;2023-02-03T16:01:21;-19544.38;;;3.12;93.58
7058;BME280;3570;43.080;25.628;2023-02-03T16:04:10;-19544.53;;;3.13;93.82
7058;BME280;3570;43.080;25.628;2023-02-03T16:06:55;-19534.84;;;2.79;94.64
7058;BME280;3570;43.080;25.628;2023-02-03T16:09:40;-19534.25;;;2.77;95.42
7058;BME280;3570;43.080;25.628;2023-02-03T16:12:29;-19529.56;;;2.61;96.80
7058;BME280;3570;43.080;25.628;2023-02-03T16:15:21;-19532.94;;;2.73;97.74
7058;BME280;3570;43.080;25.628;2023-02-03T16:18:15;-19529.41;;;2.61;97.59
7058;BME280;3570;43.080;25.628;2023-02-03T16:21:02;-19530.13;;;2.63;98.39
7058;BME280;3570;43.080;25.628;2023-02-03T16:23:49;-19528.38;;;2.57;98.39
7058;BME280;3570;43.080;25.628;2023-02-03T16:26:33;-19526.63;;;2.51;99.32
7058;BME280;3570;43.080;25.628;2023-02-03T16:29:28;-19522.66;;;2.38;100.00
7058;BME280;3570;43.080;25.628;2023-02-03T16:32:31;-19520.59;;;2.31;100.00
7058;BME280;3570;43.080;25.628;2023-02-03T16:35:34;-19516.63;;;2.17;100.00
7058;BME280;3570;43.080;25.628;2023-02-03T16:38:37;-19515.91;;;2.15;100.00
7058;BME280;3570;43.080;25.628;2023-02-03T16:41:40;-19508.13;;;1.88;100.00
7058;BME280;3570;43.080;25.628;2023-02-03T16:44:44;-19513.09;;;2.05;100.00
7058;BME280;3570;43.080;25.628;2023-02-03T16:47:47;-19520.16;;;2.29;100.00
7058;BME280;3570;43.080;25.628;2023-02-03T16:50:49;-19508.69;;;1.90;100.00
7058;BME280;3570;43.080;25.628;2023-02-03T16:53:40;-19526.63;;;2.51;100.00
7058;BME280;3570;43.080;25.628;2023-02-03T16:56:24;-19527.66;;;2.55;100.00
7058;BME280;3570;43.080;25.628;2023-02-03T16:59:09;-19530.13;;;2.63;100.00
7058;BME280;3570;43.080;25.628;2023-02-03T17:01:53;-19528.38;;;2.57;100.00